Tyner, Kentucky
Current Conditions -  °F | °C
As of 1:30 AM on Sunday 28 Dec 2014 (Local Time) from KLOZ Reporting Station
Overcast Overcast  
Wind Chill: 47°   Ceiling: 800
Heat Index: 47°   Visibility: 8mi
Dew Point: 42°   Wind: 0mph
Humidity: 83%   Direction: NA
Pressure: 30.07"   Gusts: NA
Location:  37.35°N, 83.9°W
Report Text: KLOZ 280630Z AUTO 00000KT 8SM BKN008 OVC014 08/06 A3007 RMK AO2 RAE18 P0001 T00830056
Loading
Personal Weather Stations






























Interactive Weather Map New forecast layout! Learn more

10-Day Weather Forecast

Advertisements
Track Severe Weather on mobile